Aérodrome :
LOGIN :

S'inscrire | Disclaimer

   EN    FR    IT 

 










Légende :    VFR   VFR Marginal   IFR   IFR Intensif   IFR Très Intensif
Visi : 
Plafond : 
>= 8 km
>= 3000ft
5 à 8 km
1000 à 3000 ft
1500m à 5 km
500 à 1000 ft
800 à 1500m
200 à 500 ft
< 800m
< 200 ft
Symboles :   Orages  Brouillard  Fortes neiges  Fortes précipitations  Vent > 20 kt
SIGMETs :   Divers  Orages  Givrage  Turbulence  Onde Orograph.  Cendres Volcan.







- Altitude de l'aérodrome : 39 ft
- Code IATA : ANR


EBAW - Anvers / Antwerpen Deurne

DERNIER METAR :
  • 230720Z 11005KT 0600 R11/0300N R29/0900U FG NSC 02/02 Q1037 BECMG 2000 BR MIFG

METARs EXPIRÉS :
  • 230650Z 10003KT 0200 R11/0350N R29/0350N FG NSC 01/01 Q1037 TEMPO 0250 FG
  • 230620Z 10002KT 0400 R11/0500N R29/0400N FG NSC 01/01 Q1037 TEMPO 0250 FG
  • 230550Z VRB02KT 0400 R11/0750U R29/1000U FG NSC 03/03 Q1037
  • 230520Z AUTO 10002KT 0350 R11/0450U R29/0400N FG NCD 02/02 Q1037
  • 230450Z AUTO 11002KT 0250 R11/0325N R29/0450N FG NCD 02/02 Q1037

TAF TAF EBAW
Valide du 23 à 06h jusqu'au 23 à 15h UTC


230519Z 2306/2315 12005KT 2000 BR MIFG NSC
TEMPO 2306/2307 0300 BCFG
BECMG 2307/2309 8000 NSW
Pas de NOTAMs connus pour ce terrain.



MET'MAP, la Météo Aéronautique d'un coup d'oeil ! - Copyright ORBIFLY Décembre 2007 - Disclaimer

ORBIFLY MET'MAP TEAM :

Programmation & Développement : Alexandra Zaïnal
Conception & Développement : Baudouin d'Aumeries
Co-Programmation & Développement : Marc-Olivier Méhu
Soutien technique & logistique : Manuel Goepfert

Contact : metmap@orbifly.com




SOURCES & CREDITS :

   NOAA